createdAt,value
2023-03-06T00:01:12.022Z,98.2
2023-03-06T00:06:08.513Z,98.3
2023-03-06T00:11:14.923Z,98.3
2023-03-06T00:16:35.432Z,98.4
2023-03-06T00:21:37.726Z,98.5
2023-03-06T00:26:44.092Z,98.6
2023-03-06T00:31:50.587Z,98.5
2023-03-06T00:36:56.859Z,98.4
2023-03-06T00:42:03.230Z,98.3
2023-03-06T00:47:09.633Z,98.3
2023-03-06T00:52:16.174Z,98.4
2023-03-06T00:57:22.555Z,98.3
2023-03-06T01:02:29.065Z,98.3
2023-03-06T01:07:25.289Z,98.3
2023-03-06T01:12:31.739Z,98.4
2023-03-06T01:17:48.219Z,98.5
2023-03-06T01:22:54.593Z,98.5
2023-03-06T01:28:01.075Z,98.6
2023-03-06T01:32:57.474Z,98.7
2023-03-06T01:38:13.854Z,98.7
2023-03-06T01:43:20.208Z,98.8
2023-03-06T01:48:16.589Z,99.0
2023-03-06T01:53:32.970Z,99.0
2023-03-06T01:58:39.344Z,99.1
2023-03-06T02:03:45.720Z,99.1
2023-03-06T02:08:52.094Z,99.0
2023-03-06T02:13:48.458Z,98.9
2023-03-06T02:19:03.866Z,98.8
2023-03-06T02:24:01.223Z,98.8
2023-03-06T02:29:17.680Z,98.9
2023-03-06T02:34:24.243Z,98.8
2023-03-06T02:40:04.643Z,98.7
2023-03-06T02:45:01.986Z,98.8
2023-03-06T02:50:18.411Z,98.9
2023-03-06T02:55:14.749Z,98.9
2023-03-06T03:05:37.543Z,99.1
2023-03-06T03:10:44.012Z,99.1
2023-03-06T03:15:50.446Z,99.5
2023-03-06T03:20:57.441Z,99.4
2023-03-06T03:26:23.895Z,99.9
2023-03-06T03:36:16.645Z,99.9
2023-03-06T03:41:23.021Z,99.9
2023-03-06T03:46:29.416Z,99.9
2023-03-06T03:51:35.834Z,99.9
2023-03-06T03:56:42.319Z,99.9
2023-03-06T04:07:22.958Z,99.9
2023-03-06T04:11:55.339Z,99.9
2023-03-06T04:18:15.570Z,99.9
2023-03-06T04:22:45.919Z,99.9
2023-03-06T04:27:28.207Z,99.9
2023-03-06T04:32:34.735Z,99.9
2023-03-06T04:38:09.200Z,99.9
2023-03-06T04:42:49.031Z,99.9
2023-03-06T04:47:55.463Z,99.9
2023-03-06T04:53:26.038Z,99.9
2023-03-06T04:58:08.502Z,99.9
2023-03-06T05:03:16.663Z,99.9
2023-03-06T05:08:23.006Z,99.9
2023-03-06T05:13:19.412Z,99.9
2023-03-06T05:18:25.932Z,99.9
2023-03-06T05:24:58.019Z,99.9
2023-03-06T05:28:52.294Z,99.9
2023-03-06T05:34:32.698Z,99.9
2023-03-06T05:39:40.158Z,99.9
2023-03-06T05:44:46.556Z,99.9
2023-03-06T05:49:56.902Z,99.9
2023-03-06T05:55:03.295Z,99.9
2023-03-06T06:00:05.722Z,99.9
2023-03-06T06:05:16.061Z,99.9
2023-03-06T06:10:08.542Z,99.9
2023-03-06T06:15:25.082Z,99.9
2023-03-06T06:20:21.447Z,99.9
2023-03-06T06:41:27.131Z,99.9
2023-03-06T06:46:28.247Z,99.9
2023-03-06T06:56:16.333Z,99.9
2023-03-06T07:01:26.802Z,99.9
2023-03-06T07:06:29.154Z,99.9
2023-03-06T07:11:39.501Z,99.9
2023-03-06T07:16:31.989Z,99.9
2023-03-06T07:21:48.590Z,99.9
2023-03-06T07:27:19.051Z,99.9
2023-03-06T07:33:01.540Z,99.9
2023-03-06T07:37:31.825Z,99.9
2023-03-06T07:42:14.252Z,99.9
2023-03-06T07:47:20.650Z,99.9
2023-03-06T07:52:27.133Z,99.9
2023-03-06T08:02:40.030Z,99.9
2023-03-06T08:12:56.776Z,99.9
2023-03-06T08:33:08.246Z,99.9
2023-03-06T08:38:24.892Z,99.9
2023-03-06T08:43:55.320Z,99.9
2023-03-06T08:48:41.652Z,99.9
2023-03-06T08:53:43.234Z,99.9
2023-03-06T08:58:54.424Z,99.9
2023-03-06T09:03:57.409Z,99.9
2023-03-06T09:09:07.829Z,99.9
2023-03-06T09:14:00.120Z,99.9
2023-03-06T09:19:16.708Z,99.9
2023-03-06T09:29:33.479Z,99.9
2023-03-06T09:34:35.833Z,99.9
2023-03-06T09:40:02.283Z,99.9
2023-03-06T09:44:48.574Z,99.9
2023-03-06T09:49:58.972Z,99.9
2023-03-06T09:55:01.341Z,99.9
2023-03-06T10:00:07.928Z,99.9
2023-03-06T10:05:34.307Z,99.9
2023-03-06T10:11:32.755Z,99.9
2023-03-06T10:15:17.001Z,99.9
2023-03-06T10:20:59.475Z,99.9
2023-03-06T10:25:29.734Z,99.9
2023-03-06T10:30:46.345Z,99.9
2023-03-06T10:35:56.701Z,99.9
2023-03-06T10:40:59.048Z,99.9
2023-03-06T10:46:09.538Z,99.9
2023-03-06T10:51:09.846Z,99.9
2023-03-06T10:56:18.174Z,99.0
2023-03-06T11:01:24.615Z,98.3
2023-03-06T11:06:30.967Z,97.6
2023-03-06T11:11:51.386Z,97.2
2023-03-06T11:16:47.848Z,96.7
2023-03-06T11:21:50.128Z,97.3
2023-03-06T11:26:56.507Z,98.7
2023-03-06T11:32:07.007Z,99.8
2023-03-06T11:37:13.313Z,99.7
2023-03-06T11:42:05.782Z,99.2
2023-03-06T11:47:22.233Z,98.8
2023-03-06T11:52:48.664Z,98.5
2023-03-06T11:57:34.998Z,96.8
2023-03-06T12:02:41.640Z,95.2
2023-03-06T12:07:48.057Z,92.9
2023-03-06T12:12:59.963Z,92.3
2023-03-06T12:18:02.409Z,91.6
2023-03-06T12:23:15.256Z,90.7
2023-03-06T12:28:19.196Z,90.1
2023-03-06T12:33:21.735Z,90.1
2023-03-06T12:38:32.109Z,89.2
2023-03-06T12:43:34.491Z,89.1
2023-03-06T12:48:40.888Z,89.0
2023-03-06T12:53:47.260Z,89.3
2023-03-06T12:58:53.656Z,89.0
2023-03-06T13:03:50.049Z,89.0
2023-03-06T13:09:30.464Z,89.3
2023-03-06T13:14:12.816Z,90.0
2023-03-06T13:19:23.267Z,90.0
2023-03-06T13:24:25.572Z,90.0
2023-03-06T13:29:31.972Z,90.2
2023-03-06T13:34:38.368Z,90.4
2023-03-06T13:39:44.721Z,90.7
2023-03-06T13:45:25.185Z,90.8
2023-03-06T13:50:32.815Z,91.2
2023-03-06T13:55:39.135Z,91.3
2023-03-06T14:00:45.515Z,91.7
2023-03-06T14:06:12.007Z,92.0
2023-03-06T14:10:58.253Z,91.9
2023-03-06T14:16:04.666Z,92.1
2023-03-06T14:21:11.065Z,92.1
2023-03-06T14:26:17.483Z,92.0
2023-03-06T14:31:27.942Z,92.4
2023-03-06T14:36:31.876Z,92.5
2023-03-06T14:41:58.281Z,92.1
2023-03-06T14:46:34.623Z,92.2
2023-03-06T14:52:14.127Z,91.9
2023-03-06T14:56:47.447Z,91.9
2023-03-06T15:02:04.006Z,92.1
2023-03-06T15:08:11.160Z,92.1
2023-03-06T15:12:41.475Z,92.1
2023-03-06T15:17:43.860Z,92.2
2023-03-06T15:22:34.365Z,92.0
2023-03-06T15:39:55.901Z,91.2
2023-03-06T15:44:43.947Z,91.0
2023-03-06T15:48:38.585Z,90.8
2023-03-06T15:53:44.957Z,90.9
2023-03-06T15:58:51.363Z,90.9
2023-03-06T16:03:57.753Z,90.8
2023-03-06T16:09:04.139Z,90.9
2023-03-06T16:14:44.611Z,91.3
2023-03-06T16:19:52.005Z,91.4
2023-03-06T16:24:58.384Z,91.5
2023-03-06T16:32:52.940Z,91.5
2023-03-06T16:35:31.172Z,91.4
2023-03-06T16:40:17.522Z,91.6
2023-03-06T16:45:23.948Z,91.7
2023-03-06T16:50:31.472Z,91.7
2023-03-06T16:55:37.830Z,91.8
2023-03-06T17:00:44.213Z,91.9
2023-03-06T17:06:14.653Z,91.8
2023-03-06T17:10:56.974Z,92.0
2023-03-06T17:16:03.422Z,91.8
2023-03-06T17:21:23.777Z,91.8
2023-03-06T17:26:06.088Z,91.6
2023-03-06T17:31:46.552Z,91.4
2023-03-06T17:36:28.909Z,91.9
2023-03-06T17:42:01.513Z,92.1
2023-03-06T17:51:50.251Z,93.0
2023-03-06T17:58:20.769Z,93.1
2023-03-06T18:02:03.016Z,93.1
2023-03-06T18:07:29.424Z,93.2
2023-03-06T18:13:27.876Z,93.3
2023-03-06T18:17:42.180Z,93.3
2023-03-06T18:23:28.648Z,93.4
2023-03-06T18:27:54.918Z,93.6
2023-03-06T18:33:01.317Z,93.8
2023-03-06T18:37:47.690Z,93.9
2023-03-06T18:43:14.205Z,94.0
2023-03-06T18:48:01.601Z,94.1
2023-03-06T18:53:32.046Z,94.3
2023-03-06T18:58:34.431Z,94.9
2023-03-06T19:03:20.750Z,94.8
2023-03-06T19:09:27.258Z,95.0
2023-03-06T19:13:53.579Z,95.2
2023-03-06T19:19:00.511Z,95.3
2023-03-06T19:24:13.026Z,95.5
2023-03-06T19:28:55.358Z,95.5
2023-03-06T19:39:31.285Z,95.9
2023-03-06T19:45:26.706Z,96.0
2023-03-06T19:50:33.135Z,96.2
2023-03-06T19:59:35.919Z,97.0
2023-03-06T20:15:55.386Z,97.4
2023-03-06T20:20:01.564Z,98.0
2023-03-06T20:26:21.913Z,97.9
2023-03-06T20:31:08.954Z,98.3
2023-03-06T20:36:35.283Z,98.1
2023-03-06T20:42:15.755Z,98.6
2023-03-06T20:47:03.140Z,98.8
2023-03-06T20:52:09.495Z,99.6
2023-03-06T20:57:35.916Z,99.6
2023-03-06T21:02:22.458Z,99.6
2023-03-06T21:07:28.804Z,99.9
2023-03-06T21:12:55.268Z,99.9
2023-03-06T21:17:41.655Z,99.9
2023-03-06T21:22:48.163Z,99.9
2023-03-06T21:27:55.680Z,99.9
2023-03-06T21:33:02.115Z,99.9
2023-03-06T21:48:41.245Z,99.9
2023-03-06T21:53:48.184Z,99.9
2023-03-06T21:58:34.544Z,99.9
2023-03-06T22:03:40.924Z,99.9
2023-03-06T22:09:11.460Z,99.9
2023-03-06T22:13:53.854Z,99.9
2023-03-06T22:19:00.285Z,99.9
2023-03-06T22:24:30.723Z,99.9
2023-03-06T22:29:41.078Z,99.9
2023-03-06T22:34:19.412Z,99.9
2023-03-06T22:39:25.772Z,99.9
2023-03-06T22:45:26.366Z,99.9
2023-03-06T22:51:25.877Z,99.9
2023-03-06T22:55:20.088Z,99.9
2023-03-06T23:01:54.380Z,99.9
2023-03-06T23:05:36.754Z,99.9
2023-03-06T23:10:43.164Z,99.9
2023-03-06T23:16:03.635Z,99.9
2023-03-06T23:32:20.916Z,99.9
2023-03-06T23:36:15.110Z,99.9
2023-03-06T23:41:21.519Z,99.9
2023-03-06T23:46:27.907Z,99.9
2023-03-06T23:51:34.448Z,99.9
2023-03-06T23:57:29.957Z,99.9
